createdAt,value
2022-11-09T00:02:29.096Z,15.10
2022-11-09T00:05:32.098Z,16.90
2022-11-09T00:08:37.492Z,15.40
2022-11-09T00:11:40.528Z,15.40
2022-11-09T00:14:44.960Z,15.20
2022-11-09T00:17:48.038Z,14.90
2022-11-09T00:20:51.082Z,15.33
2022-11-09T00:23:54.287Z,14.47
2022-11-09T00:26:57.361Z,15.40
2022-11-09T00:30:01.742Z,15.30
2022-11-09T00:33:04.879Z,14.73
2022-11-09T00:36:10.181Z,16.00
2022-11-09T00:39:13.439Z,14.53
2022-11-09T00:42:16.452Z,14.97
2022-11-09T00:45:20.862Z,14.50
2022-11-09T00:48:24.081Z,15.83
2022-11-09T00:51:27.088Z,15.70
2022-11-09T00:54:30.160Z,14.47
2022-11-09T00:57:33.127Z,15.57
2022-11-09T01:00:38.816Z,15.03
2022-11-09T01:03:42.101Z,15.17
2022-11-09T01:06:45.255Z,15.73
2022-11-09T01:09:48.264Z,14.57
2022-11-09T01:12:51.268Z,15.00
2022-11-09T01:15:55.640Z,14.43
2022-11-09T01:18:59.944Z,16.20
2022-11-09T01:22:03.199Z,15.00
2022-11-09T01:25:07.159Z,13.93
2022-11-09T01:28:11.872Z,15.20
2022-11-09T01:31:19.318Z,15.13
2022-11-09T01:34:22.404Z,15.17
2022-11-09T01:37:25.499Z,15.50
2022-11-09T01:40:30.048Z,14.20
2022-11-09T01:43:33.121Z,14.27
2022-11-09T01:46:42.297Z,15.73
2022-11-09T01:49:50.579Z,14.97
2022-11-09T01:52:53.672Z,14.00
2022-11-09T01:55:59.976Z,15.87
2022-11-09T01:59:07.158Z,15.17
2022-11-09T02:02:12.390Z,14.27
2022-11-09T02:05:18.861Z,15.33
2022-11-09T02:08:26.404Z,14.83
2022-11-09T02:11:30.460Z,14.63
2022-11-09T02:14:35.866Z,14.97
2022-11-09T02:17:41.812Z,15.10
2022-11-09T02:20:50.650Z,15.27
2022-11-09T02:23:53.804Z,15.40
2022-11-09T02:26:57.016Z,14.73
2022-11-09T02:30:01.841Z,14.70
2022-11-09T02:33:04.916Z,15.77
2022-11-09T02:36:09.523Z,13.80
2022-11-09T02:39:15.676Z,14.87
2022-11-09T02:42:21.685Z,14.70
2022-11-09T02:45:25.173Z,14.30
2022-11-09T02:48:28.216Z,15.00
2022-11-09T02:51:32.616Z,14.87
2022-11-09T02:54:35.677Z,17.83
2022-11-09T02:57:38.745Z,17.10
2022-11-09T03:00:42.109Z,17.27
2022-11-09T03:03:45.298Z,17.40
2022-11-09T03:06:49.729Z,17.00
2022-11-09T03:09:54.020Z,15.77
2022-11-09T03:12:57.035Z,18.70
2022-11-09T03:16:00.061Z,16.60
2022-11-09T03:19:03.326Z,17.87
2022-11-09T03:22:07.882Z,16.33
2022-11-09T03:25:11.433Z,16.40
2022-11-09T03:28:14.466Z,19.23
2022-11-09T03:31:17.616Z,17.13
2022-11-09T03:34:20.645Z,16.80
2022-11-09T03:37:25.164Z,16.60
2022-11-09T03:40:28.222Z,17.43
2022-11-09T03:43:31.704Z,18.23
2022-11-09T03:46:34.687Z,18.17
2022-11-09T03:49:37.803Z,18.47
2022-11-09T03:52:45.013Z,17.43
2022-11-09T03:55:48.070Z,18.03
2022-11-09T03:58:51.127Z,18.23
2022-11-09T04:01:54.148Z,17.23
2022-11-09T04:04:57.146Z,16.97
2022-11-09T04:08:01.613Z,16.33
2022-11-09T04:11:04.656Z,16.43
2022-11-09T04:14:07.667Z,16.70
2022-11-09T04:17:10.666Z,16.70
2022-11-09T04:20:14.017Z,16.57
2022-11-09T04:23:18.735Z,17.40
2022-11-09T04:26:21.949Z,17.40
2022-11-09T04:29:25.050Z,17.20
2022-11-09T04:32:28.234Z,17.67
2022-11-09T04:35:33.292Z,17.67
2022-11-09T04:38:37.796Z,17.63
2022-11-09T04:41:40.875Z,17.93
2022-11-09T04:44:43.972Z,17.10
2022-11-09T04:47:46.964Z,18.17
2022-11-09T04:50:50.052Z,17.77
2022-11-09T04:53:54.555Z,18.90
2022-11-09T04:56:57.544Z,18.37
2022-11-09T05:00:00.548Z,20.53
2022-11-09T05:03:05.200Z,19.63
2022-11-09T05:06:22.675Z,20.47
2022-11-09T05:09:27.072Z,19.40
2022-11-09T05:12:30.074Z,18.67
2022-11-09T05:15:33.697Z,19.03
2022-11-09T05:18:36.696Z,19.40
2022-11-09T05:21:39.829Z,17.97
2022-11-09T05:24:43.304Z,18.47
2022-11-09T05:27:46.321Z,19.50
2022-11-09T05:30:49.387Z,19.67
2022-11-09T05:33:52.784Z,18.17
2022-11-09T05:37:00.709Z,19.00
2022-11-09T05:40:09.694Z,19.80
2022-11-09T05:43:12.645Z,17.93
2022-11-09T05:46:16.621Z,18.60
2022-11-09T05:49:19.585Z,18.43
2022-11-09T05:52:22.570Z,20.17
2022-11-09T05:55:27.179Z,18.70
2022-11-09T05:58:30.225Z,17.83
2022-11-09T06:01:33.399Z,20.03
2022-11-09T06:04:36.376Z,19.70
2022-11-09T06:07:39.380Z,17.80
2022-11-09T06:10:44.554Z,18.97
2022-11-09T06:13:47.575Z,21.20
2022-11-09T06:16:50.660Z,20.00
2022-11-09T06:19:53.674Z,20.13
2022-11-09T06:23:02.473Z,20.33
2022-11-09T06:26:10.315Z,20.70
2022-11-09T06:29:13.286Z,20.87
2022-11-09T06:32:16.254Z,21.80
2022-11-09T06:35:19.316Z,22.60
2022-11-09T06:38:22.273Z,21.00
2022-11-09T06:41:26.674Z,20.47
2022-11-09T06:44:29.666Z,21.77
2022-11-09T06:47:32.648Z,21.00
2022-11-09T06:50:35.764Z,21.53
2022-11-09T06:53:40.796Z,21.27
2022-11-09T06:56:45.200Z,21.50
2022-11-09T06:59:48.764Z,21.90
2022-11-09T07:02:52.388Z,21.13
2022-11-09T07:05:55.393Z,21.90
2022-11-09T07:08:58.696Z,19.70
2022-11-09T07:12:04.170Z,20.60
2022-11-09T07:15:08.398Z,19.50
2022-11-09T07:18:13.315Z,21.37
2022-11-09T07:21:16.483Z,19.83
2022-11-09T07:24:19.540Z,20.77
2022-11-09T07:27:27.780Z,19.43
2022-11-09T07:30:31.372Z,20.83
2022-11-09T07:33:34.738Z,20.40
2022-11-09T07:36:37.914Z,21.10
2022-11-09T07:39:40.939Z,18.57
2022-11-09T07:42:45.313Z,20.23
2022-11-09T07:45:48.494Z,20.63
2022-11-09T07:48:51.491Z,19.47
2022-11-09T07:51:54.498Z,20.57
2022-11-09T07:54:57.454Z,20.57
2022-11-09T07:58:03.925Z,20.97
2022-11-09T08:01:10.610Z,20.63
2022-11-09T08:04:14.689Z,20.03
2022-11-09T08:07:17.785Z,21.50
2022-11-09T08:10:20.832Z,21.60
2022-11-09T08:13:25.298Z,21.50
2022-11-09T08:16:31.054Z,21.53
2022-11-09T08:19:36.441Z,21.30
2022-11-09T08:22:42.842Z,20.63
2022-11-09T08:25:46.070Z,20.47
2022-11-09T08:28:50.454Z,19.97
2022-11-09T08:31:53.439Z,21.47
2022-11-09T08:34:56.415Z,20.77
2022-11-09T08:38:03.047Z,21.00
2022-11-09T08:41:12.083Z,21.13
2022-11-09T08:44:17.774Z,20.53
2022-11-09T08:47:20.838Z,19.93
2022-11-09T08:50:23.815Z,19.77
2022-11-09T08:53:29.001Z,20.10
2022-11-09T08:56:31.993Z,21.10
2022-11-09T08:59:36.506Z,20.47
2022-11-09T09:02:39.625Z,21.13
2022-11-09T09:05:42.701Z,21.20
2022-11-09T09:08:45.961Z,20.67
2022-11-09T09:11:48.996Z,20.20
2022-11-09T09:14:53.405Z,21.07
2022-11-09T09:17:56.374Z,22.07
2022-11-09T09:20:59.403Z,20.77
2022-11-09T09:24:02.394Z,20.53
2022-11-09T09:27:05.548Z,20.60
2022-11-09T09:30:11.904Z,24.57
2022-11-09T09:33:14.972Z,38.83
2022-11-09T09:36:20.048Z,61.30
2022-11-09T09:39:23.082Z,81.30
2022-11-09T09:42:31.219Z,87.70
2022-11-09T09:45:39.324Z,85.40
2022-11-09T09:48:46.742Z,85.57
2022-11-09T09:51:53.614Z,81.37
2022-11-09T09:55:02.522Z,80.53
2022-11-09T09:58:12.802Z,80.80
2022-11-09T10:01:21.185Z,79.63
2022-11-09T10:04:27.045Z,78.83
2022-11-09T10:07:37.581Z,73.83
2022-11-09T10:10:47.079Z,75.20
2022-11-09T10:14:04.900Z,75.60
2022-11-09T10:17:20.291Z,70.23
2022-11-09T10:20:42.646Z,74.23
2022-11-09T10:24:07.612Z,68.57
2022-11-09T10:27:26.142Z,67.73
2022-11-09T10:30:30.504Z,69.43
2022-11-09T10:33:34.872Z,66.53
2022-11-09T10:36:45.409Z,65.37
2022-11-09T10:39:52.886Z,67.20
2022-11-09T10:42:58.586Z,64.83
2022-11-09T10:46:05.716Z,65.93
2022-11-09T10:49:21.815Z,63.97
2022-11-09T10:52:33.208Z,63.60
2022-11-09T10:55:36.989Z,62.77
2022-11-09T10:58:42.046Z,61.93
2022-11-09T11:01:45.174Z,59.87
2022-11-09T11:04:49.563Z,60.63
2022-11-09T11:07:52.747Z,60.80
2022-11-09T11:11:32.090Z,60.37
2022-11-09T11:14:34.746Z,59.27
2022-11-09T11:17:38.419Z,55.70
2022-11-09T11:20:42.977Z,56.23
2022-11-09T11:23:46.202Z,55.53
2022-11-09T11:26:58.750Z,56.27
2022-11-09T11:30:08.103Z,55.40
2022-11-09T11:33:16.315Z,54.23
2022-11-09T11:36:29.744Z,54.37
2022-11-09T11:39:44.701Z,53.80
2022-11-09T11:43:08.194Z,53.13
2022-11-09T11:46:18.921Z,53.03
2022-11-09T11:49:47.741Z,51.73
2022-11-09T11:53:07.803Z,51.23
2022-11-09T11:56:22.606Z,51.27
2022-11-09T11:59:48.075Z,49.10
2022-11-09T12:03:19.268Z,49.30
2022-11-09T12:06:44.281Z,47.40
2022-11-09T12:10:09.356Z,48.07
2022-11-09T12:13:40.078Z,49.10
2022-11-09T12:16:49.819Z,47.33
2022-11-09T12:20:11.122Z,47.23
2022-11-09T12:23:30.331Z,46.00
2022-11-09T12:26:52.340Z,47.97
2022-11-09T12:30:14.408Z,45.03
2022-11-09T12:33:28.170Z,46.27
2022-11-09T12:36:39.521Z,44.83
2022-11-09T12:39:47.272Z,46.13
2022-11-09T12:42:58.920Z,43.60
2022-11-09T12:46:05.413Z,42.97
2022-11-09T12:49:33.510Z,41.83
2022-11-09T12:52:38.128Z,40.97
2022-11-09T12:55:48.097Z,42.27
2022-11-09T12:58:52.551Z,40.50
2022-11-09T13:01:57.703Z,41.13
2022-11-09T13:05:02.782Z,40.17
2022-11-09T13:08:07.465Z,39.10
2022-11-09T13:11:22.958Z,40.87
2022-11-09T13:14:36.268Z,39.43
2022-11-09T13:18:01.693Z,37.57
2022-11-09T13:21:39.030Z,36.20
2022-11-09T13:24:52.029Z,36.90
2022-11-09T13:27:55.145Z,37.33
2022-11-09T13:31:00.559Z,38.63
2022-11-09T13:34:36.836Z,36.67
2022-11-09T13:37:57.825Z,35.90
2022-11-09T13:41:01.708Z,35.70
2022-11-09T13:44:15.938Z,35.70
2022-11-09T13:47:38.259Z,35.53
2022-11-09T13:50:41.367Z,36.23
2022-11-09T13:53:56.593Z,33.70
2022-11-09T13:57:03.220Z,34.70
2022-11-09T14:00:08.133Z,33.33
2022-11-09T14:03:27.052Z,31.57
2022-11-09T14:06:30.778Z,33.40
2022-11-09T14:09:44.565Z,32.37
2022-11-09T14:12:58.427Z,34.00
2022-11-09T14:16:11.197Z,31.90
2022-11-09T14:19:24.856Z,31.77
2022-11-09T14:22:36.641Z,33.10
2022-11-09T14:25:39.685Z,32.33
2022-11-09T14:28:42.752Z,32.93
2022-11-09T14:31:46.613Z,30.50
2022-11-09T14:34:51.049Z,31.03
2022-11-09T14:37:56.045Z,31.80
2022-11-09T14:40:59.753Z,31.27
2022-11-09T14:44:02.783Z,28.90
2022-11-09T14:47:07.461Z,29.93
2022-11-09T14:50:18.223Z,30.37
2022-11-09T14:53:26.272Z,28.20
2022-11-09T14:56:31.551Z,29.17
2022-11-09T14:59:37.110Z,28.90
2022-11-09T15:02:40.113Z,28.50
2022-11-09T15:05:44.531Z,27.53
2022-11-09T15:08:53.459Z,27.70
2022-11-09T15:11:56.562Z,27.30
2022-11-09T15:15:03.216Z,26.87
2022-11-09T15:18:06.633Z,28.10
2022-11-09T15:21:17.011Z,26.33
2022-11-09T15:24:22.075Z,27.43
2022-11-09T15:27:31.701Z,26.53
2022-11-09T15:30:39.838Z,27.50
2022-11-09T15:33:52.292Z,26.83
2022-11-09T15:36:56.976Z,27.70
2022-11-09T15:40:00.342Z,25.03
2022-11-09T15:43:03.530Z,24.63
2022-11-09T15:46:07.374Z,29.03
2022-11-09T15:49:19.578Z,26.20
2022-11-09T15:52:24.101Z,27.73
2022-11-09T15:55:27.227Z,26.27
2022-11-09T15:58:30.225Z,27.77
2022-11-09T16:01:33.385Z,27.60
2022-11-09T16:04:36.574Z,27.67
2022-11-09T16:07:48.731Z,27.80
2022-11-09T16:10:51.777Z,27.33
2022-11-09T16:13:54.755Z,28.87
2022-11-09T16:16:57.834Z,28.20
2022-11-09T16:20:00.831Z,27.50
2022-11-09T16:23:05.190Z,27.40
2022-11-09T16:26:10.252Z,27.33
2022-11-09T16:29:13.453Z,26.63
2022-11-09T16:32:16.483Z,26.37
2022-11-09T16:35:28.040Z,26.03
2022-11-09T16:38:36.504Z,26.67
2022-11-09T16:41:42.232Z,27.23
2022-11-09T16:44:49.068Z,29.93
2022-11-09T16:47:56.796Z,28.77
2022-11-09T16:51:00.019Z,28.70
2022-11-09T16:54:04.713Z,25.63
2022-11-09T16:57:07.749Z,25.27
2022-11-09T17:00:13.114Z,25.50
2022-11-09T17:03:16.685Z,25.93
2022-11-09T17:06:19.650Z,25.03
2022-11-09T17:09:24.141Z,24.17
2022-11-09T17:12:27.189Z,25.73
2022-11-09T17:15:30.402Z,26.83
2022-11-09T17:18:33.419Z,26.03
2022-11-09T17:21:36.423Z,26.90
2022-11-09T17:24:40.893Z,27.30
2022-11-09T17:27:43.879Z,27.20
2022-11-09T17:30:46.944Z,28.57
2022-11-09T17:33:50.143Z,28.23
2022-11-09T17:37:08.357Z,27.00
2022-11-09T17:40:13.358Z,27.23
2022-11-09T17:43:16.430Z,29.70
2022-11-09T17:46:21.235Z,28.30
2022-11-09T17:49:24.252Z,31.20
2022-11-09T17:52:27.291Z,29.07
2022-11-09T17:55:31.914Z,29.73
2022-11-09T17:58:35.408Z,26.57
2022-11-09T18:01:41.509Z,30.33
2022-11-09T18:04:44.730Z,28.27
2022-11-09T18:07:47.769Z,28.97
2022-11-09T18:10:52.205Z,28.93
2022-11-09T18:13:55.307Z,29.97
2022-11-09T18:17:01.272Z,29.40
2022-11-09T18:20:05.345Z,29.20
2022-11-09T18:23:08.620Z,27.60
2022-11-09T18:26:13.617Z,28.17
2022-11-09T18:29:16.610Z,28.70
2022-11-09T18:32:19.608Z,29.30
2022-11-09T18:35:22.772Z,28.60
2022-11-09T18:38:29.247Z,28.77
2022-11-09T18:41:34.565Z,29.43
2022-11-09T18:44:37.594Z,28.73
2022-11-09T18:47:40.632Z,26.93
2022-11-09T18:50:43.614Z,27.70
2022-11-09T18:53:48.058Z,27.43
2022-11-09T18:56:53.049Z,26.97
2022-11-09T18:59:56.015Z,27.00
2022-11-09T19:02:59.259Z,24.43
2022-11-09T19:06:06.193Z,24.03
2022-11-09T19:09:28.937Z,23.43
2022-11-09T19:12:33.528Z,22.43
2022-11-09T19:15:39.557Z,22.43
2022-11-09T19:18:43.439Z,21.47
2022-11-09T19:21:49.563Z,23.93
2022-11-09T19:24:52.721Z,25.47
2022-11-09T19:27:57.129Z,26.57
2022-11-09T19:31:00.186Z,24.43
2022-11-09T19:34:03.254Z,24.80
2022-11-09T19:37:06.578Z,25.70
2022-11-09T19:40:10.849Z,25.50
2022-11-09T19:43:15.540Z,25.20
2022-11-09T19:46:18.725Z,25.17
2022-11-09T19:49:21.849Z,23.10
2022-11-09T19:52:24.842Z,23.00
2022-11-09T19:55:28.838Z,23.87
2022-11-09T19:58:33.231Z,22.97
2022-11-09T20:01:36.321Z,23.23
2022-11-09T20:04:39.577Z,23.00
2022-11-09T20:07:43.567Z,22.67
2022-11-09T20:10:46.618Z,22.30
2022-11-09T20:13:51.065Z,22.47
2022-11-09T20:16:54.795Z,22.30
2022-11-09T20:19:57.919Z,22.37
2022-11-09T20:23:01.905Z,23.13
2022-11-09T20:26:05.675Z,33.03
2022-11-09T20:29:10.152Z,36.40
2022-11-09T20:32:14.797Z,37.63
2022-11-09T20:35:20.028Z,40.37
2022-11-09T20:38:23.897Z,34.17
2022-11-09T20:41:27.082Z,33.93
2022-11-09T20:44:31.656Z,31.87
2022-11-09T20:48:04.714Z,31.10
2022-11-09T20:51:04.217Z,31.33
2022-11-09T20:54:07.965Z,29.87
2022-11-09T20:57:11.139Z,29.07
2022-11-09T21:00:19.271Z,31.10
2022-11-09T21:03:26.986Z,35.40
2022-11-09T21:06:31.402Z,37.00
2022-11-09T21:09:34.550Z,36.17
2022-11-09T21:12:37.702Z,35.67
2022-11-09T21:15:42.459Z,36.67
2022-11-09T21:18:45.526Z,36.87
2022-11-09T21:21:48.522Z,40.40
2022-11-09T21:25:08.924Z,37.80
2022-11-09T21:28:33.290Z,38.10
2022-11-09T21:31:37.623Z,36.70
2022-11-09T21:34:40.719Z,37.57
2022-11-09T21:37:43.724Z,38.07
2022-11-09T21:40:46.777Z,36.17
2022-11-09T21:43:49.829Z,36.10
2022-11-09T21:46:54.355Z,37.30
2022-11-09T21:49:57.401Z,37.00
2022-11-09T21:53:00.462Z,36.97
2022-11-09T21:56:03.565Z,36.50
2022-11-09T21:59:06.690Z,34.67
2022-11-09T22:02:12.391Z,35.17
2022-11-09T22:05:20.251Z,35.00
2022-11-09T22:08:25.868Z,33.80
2022-11-09T22:11:42.672Z,36.20
2022-11-09T22:15:02.831Z,37.00
2022-11-09T22:18:07.432Z,34.13
2022-11-09T22:21:09.494Z,35.53
2022-11-09T22:24:12.782Z,36.00
2022-11-09T22:27:15.766Z,34.57
2022-11-09T22:30:18.836Z,31.80
2022-11-09T22:33:27.297Z,33.67
2022-11-09T22:36:30.755Z,33.20
2022-11-09T22:39:33.764Z,34.73
2022-11-09T22:42:36.833Z,34.37
2022-11-09T22:45:39.915Z,34.67
2022-11-09T22:48:45.447Z,32.30
2022-11-09T22:51:48.414Z,34.90
2022-11-09T22:54:51.400Z,32.97
2022-11-09T22:57:55.830Z,33.47
2022-11-09T23:01:07.223Z,33.80
2022-11-09T23:04:11.960Z,32.77
2022-11-09T23:07:15.071Z,32.50
2022-11-09T23:10:18.339Z,33.00
2022-11-09T23:13:21.509Z,30.60
2022-11-09T23:16:25.320Z,32.20
2022-11-09T23:19:28.714Z,31.00
2022-11-09T23:22:35.220Z,31.90
2022-11-09T23:25:57.035Z,30.97
2022-11-09T23:29:00.618Z,32.73
2022-11-09T23:32:03.589Z,30.50
2022-11-09T23:35:09.230Z,30.93
2022-11-09T23:38:12.782Z,30.20
2022-11-09T23:41:15.838Z,30.43
2022-11-09T23:44:18.892Z,30.77
2022-11-09T23:47:21.928Z,30.67
2022-11-09T23:50:26.281Z,28.80
2022-11-09T23:53:30.753Z,28.53
2022-11-09T23:56:33.806Z,28.10
2022-11-09T23:59:36.867Z,28.67
